createdAt,value
2023-05-25T00:00:07.214Z,85.87
2023-05-25T00:00:49.803Z,85.87
2023-05-25T00:01:11.978Z,85.97
2023-05-25T00:01:38.213Z,85.97
2023-05-25T00:02:10.961Z,85.97
2023-05-25T00:02:43.850Z,85.97
2023-05-25T00:03:16.650Z,85.97
2023-05-25T00:03:49.448Z,85.87
2023-05-25T00:04:22.241Z,85.87
2023-05-25T00:04:54.934Z,86.07
2023-05-25T00:05:27.614Z,86.14
2023-05-25T00:06:00.277Z,86.04
2023-05-25T00:06:32.968Z,85.83
2023-05-25T00:07:05.635Z,85.63
2023-05-25T00:07:38.306Z,85.52
2023-05-25T00:08:10.962Z,85.52
2023-05-25T00:08:43.667Z,85.42
2023-05-25T00:09:16.382Z,85.42
2023-05-25T00:09:49.033Z,85.31
2023-05-25T00:10:20.137Z,85.22
2023-05-25T00:10:52.813Z,85.11
2023-05-25T00:11:25.470Z,85.01
2023-05-25T00:11:58.165Z,85.01
2023-05-25T00:12:30.823Z,84.91
2023-05-25T00:13:03.512Z,84.80
2023-05-25T00:13:36.185Z,84.77
2023-05-25T00:14:08.850Z,84.66
2023-05-25T00:14:41.517Z,84.56
2023-05-25T00:15:14.187Z,84.56
2023-05-25T00:15:46.862Z,84.36
2023-05-25T00:16:19.614Z,84.36
2023-05-25T00:16:52.347Z,84.36
2023-05-25T00:17:25.100Z,84.25
2023-05-25T00:17:57.940Z,84.05
2023-05-25T00:18:30.651Z,84.05
2023-05-25T00:19:03.338Z,84.15
2023-05-25T00:19:35.997Z,83.95
2023-05-25T00:20:08.715Z,83.95
2023-05-25T00:20:41.439Z,84.05
2023-05-25T00:21:14.196Z,84.15
2023-05-25T00:21:46.893Z,83.95
2023-05-25T00:22:19.540Z,83.81
2023-05-25T00:22:52.209Z,83.81
2023-05-25T00:23:24.890Z,83.81
2023-05-25T00:23:55.974Z,83.70
2023-05-25T00:24:28.653Z,83.70
2023-05-25T00:25:01.317Z,83.70
2023-05-25T00:25:33.984Z,83.60
2023-05-25T00:26:06.648Z,83.50
2023-05-25T00:26:39.324Z,83.50
2023-05-25T00:27:12.034Z,83.39
2023-05-25T00:27:44.674Z,83.39
2023-05-25T00:28:17.356Z,83.39
2023-05-25T00:28:50.032Z,83.60
2023-05-25T00:29:22.692Z,83.50
2023-05-25T00:29:55.367Z,83.50
2023-05-25T00:30:28.053Z,83.60
2023-05-25T00:31:00.729Z,83.60
2023-05-25T00:31:33.733Z,83.70
2023-05-25T00:32:04.595Z,83.50
2023-05-25T00:32:37.296Z,83.39
2023-05-25T00:33:10.069Z,83.29
2023-05-25T00:33:42.763Z,83.19
2023-05-25T00:34:15.477Z,83.19
2023-05-25T00:34:48.131Z,83.29
2023-05-25T00:35:20.785Z,83.19
2023-05-25T00:35:53.452Z,83.19
2023-05-25T00:36:20.108Z,83.09
2023-05-25T00:36:52.861Z,82.98
2023-05-25T00:37:25.519Z,83.09
2023-05-25T00:37:58.234Z,82.98
2023-05-25T00:38:30.903Z,82.95
2023-05-25T00:39:03.580Z,82.95
2023-05-25T00:39:36.263Z,82.89
2023-05-25T00:40:08.927Z,82.84
2023-05-25T00:40:41.611Z,82.84
2023-05-25T00:41:14.271Z,82.84
2023-05-25T00:41:46.946Z,82.84
2023-05-25T00:42:19.609Z,82.75
2023-05-25T00:42:52.289Z,82.75
2023-05-25T00:43:24.961Z,82.64
2023-05-25T00:43:57.626Z,82.64
2023-05-25T00:44:30.292Z,82.64
2023-05-25T00:45:02.968Z,82.54
2023-05-25T00:45:35.642Z,82.64
2023-05-25T00:46:08.340Z,82.54
2023-05-25T00:46:41.000Z,82.54
2023-05-25T00:47:13.682Z,82.43
2023-05-25T00:47:46.389Z,82.43
2023-05-25T00:48:19.060Z,82.64
2023-05-25T00:48:51.722Z,82.54
2023-05-25T00:49:24.412Z,82.43
2023-05-25T00:49:57.090Z,82.34
2023-05-25T00:50:29.766Z,82.23
2023-05-25T00:51:02.477Z,82.23
2023-05-25T00:51:35.137Z,82.23
2023-05-25T00:52:07.890Z,82.23
2023-05-25T00:52:40.561Z,82.34
2023-05-25T00:53:13.260Z,82.23
2023-05-25T00:53:45.906Z,82.23
2023-05-25T00:54:18.602Z,82.23
2023-05-25T00:54:51.319Z,82.43
2023-05-25T00:55:23.992Z,82.43
2023-05-25T00:55:56.666Z,82.34
2023-05-25T00:56:29.333Z,82.43
2023-05-25T00:57:02.007Z,82.64
2023-05-25T00:57:34.674Z,82.75
2023-05-25T00:58:07.343Z,82.75
2023-05-25T00:58:40.032Z,82.75
2023-05-25T00:59:12.671Z,82.64
2023-05-25T00:59:45.355Z,82.64
2023-05-25T01:00:18.007Z,82.75
2023-05-25T01:00:50.666Z,82.84
2023-05-25T01:01:23.391Z,82.84
2023-05-25T01:01:56.120Z,82.95
2023-05-25T01:02:27.216Z,82.98
2023-05-25T01:02:59.973Z,82.68
2023-05-25T01:03:32.712Z,82.57
2023-05-25T01:04:05.517Z,82.68
2023-05-25T01:04:38.196Z,82.78
2023-05-25T01:05:10.886Z,82.78
2023-05-25T01:05:43.691Z,82.89
2023-05-25T01:06:10.052Z,82.98
2023-05-25T01:06:42.709Z,83.09
2023-05-25T01:07:15.410Z,82.98
2023-05-25T01:07:48.068Z,82.78
2023-05-25T01:08:20.738Z,82.89
2023-05-25T01:08:53.396Z,82.98
2023-05-25T01:09:26.064Z,83.09
2023-05-25T01:09:58.757Z,82.98
2023-05-25T01:10:31.414Z,82.89
2023-05-25T01:11:04.096Z,82.78
2023-05-25T01:11:36.789Z,82.78
2023-05-25T01:12:09.443Z,82.68
2023-05-25T01:12:42.120Z,82.68
2023-05-25T01:13:14.792Z,82.78
2023-05-25T01:13:47.468Z,82.78
2023-05-25T01:14:20.169Z,83.03
2023-05-25T01:14:51.279Z,83.03
2023-05-25T01:15:23.940Z,83.13
2023-05-25T01:15:56.641Z,83.23
2023-05-25T01:16:29.325Z,83.23
2023-05-25T01:17:02.022Z,83.33
2023-05-25T01:17:34.715Z,83.23
2023-05-25T01:18:07.391Z,83.44
2023-05-25T01:18:40.101Z,83.44
2023-05-25T01:19:12.779Z,83.44
2023-05-25T01:19:51.869Z,83.54
2023-05-25T01:20:16.563Z,83.64
2023-05-25T01:20:49.242Z,83.64
2023-05-25T01:21:21.916Z,83.54
2023-05-25T01:21:54.621Z,83.54
2023-05-25T01:22:27.312Z,83.64
2023-05-25T01:22:59.994Z,83.64
2023-05-25T01:23:32.662Z,83.74
2023-05-25T01:24:05.325Z,83.74
2023-05-25T01:24:37.987Z,83.84
2023-05-25T01:25:04.713Z,83.84
2023-05-25T01:25:37.380Z,83.74
2023-05-25T01:26:10.050Z,83.64
2023-05-25T01:26:42.723Z,83.54
2023-05-25T01:27:15.401Z,83.64
2023-05-25T01:27:48.084Z,83.64
2023-05-25T01:28:20.883Z,83.54
2023-05-25T01:28:47.411Z,83.54
2023-05-25T01:29:20.096Z,83.54
2023-05-25T01:29:52.781Z,83.64
2023-05-25T01:30:25.467Z,83.64
2023-05-25T01:30:58.143Z,83.64
2023-05-25T01:31:30.839Z,83.74
2023-05-25T01:32:03.669Z,83.78
2023-05-25T01:32:36.328Z,83.78
2023-05-25T01:33:09.046Z,83.78
2023-05-25T01:33:40.083Z,83.88
2023-05-25T01:34:12.778Z,83.98
2023-05-25T01:34:45.463Z,83.98
2023-05-25T01:35:18.133Z,83.88
2023-05-25T01:35:50.809Z,83.88
2023-05-25T01:36:23.467Z,83.98
2023-05-25T01:36:54.573Z,83.98
2023-05-25T01:37:27.258Z,83.88
2023-05-25T01:37:59.941Z,83.88
2023-05-25T01:38:32.589Z,83.68
2023-05-25T01:39:05.264Z,83.58
2023-05-25T01:39:37.927Z,83.68
2023-05-25T01:40:10.592Z,83.88
2023-05-25T01:40:43.260Z,83.98
2023-05-25T01:41:15.934Z,83.98
2023-05-25T01:41:47.041Z,84.19
2023-05-25T01:42:19.701Z,84.29
2023-05-25T01:42:52.371Z,84.39
2023-05-25T01:43:25.039Z,84.39
2023-05-25T01:43:57.728Z,84.39
2023-05-25T01:44:30.391Z,84.39
2023-05-25T01:45:03.089Z,84.39
2023-05-25T01:45:35.816Z,84.29
2023-05-25T01:46:08.523Z,84.29
2023-05-25T01:46:41.247Z,84.39
2023-05-25T01:47:13.929Z,84.39
2023-05-25T01:47:46.787Z,84.39
2023-05-25T01:48:13.165Z,84.44
2023-05-25T01:48:45.866Z,84.44
2023-05-25T01:49:18.557Z,84.44
2023-05-25T01:49:51.217Z,84.53
2023-05-25T01:50:23.894Z,84.64
2023-05-25T01:50:56.570Z,84.74
2023-05-25T01:51:29.228Z,84.84
2023-05-25T01:52:01.984Z,84.74
2023-05-25T01:52:34.721Z,84.84
2023-05-25T01:53:07.498Z,84.84
2023-05-25T01:53:40.157Z,84.95
2023-05-25T01:54:12.821Z,84.95
2023-05-25T01:54:45.498Z,85.15
2023-05-25T01:55:18.188Z,85.25
2023-05-25T01:55:50.837Z,85.25
2023-05-25T01:56:23.509Z,85.36
2023-05-25T01:56:56.186Z,85.25
2023-05-25T01:57:28.859Z,85.25
2023-05-25T01:58:01.548Z,85.50
2023-05-25T01:58:34.242Z,85.50
2023-05-25T01:59:06.910Z,85.60
2023-05-25T01:59:39.590Z,85.50
2023-05-25T02:00:12.260Z,85.39
2023-05-25T02:00:44.944Z,85.39
2023-05-25T02:01:17.662Z,85.50
2023-05-25T02:01:52.924Z,85.60
2023-05-25T02:02:21.438Z,85.71
2023-05-25T02:02:54.308Z,85.80
2023-05-25T02:03:27.014Z,85.71
2023-05-25T02:03:59.715Z,85.50
2023-05-25T02:04:32.389Z,85.50
2023-05-25T02:05:05.041Z,85.60
2023-05-25T02:05:37.717Z,85.60
2023-05-25T02:06:10.381Z,85.39
2023-05-25T02:06:43.046Z,85.39
2023-05-25T02:07:15.763Z,85.39
2023-05-25T02:07:48.417Z,85.39
2023-05-25T02:08:21.361Z,85.50
2023-05-25T02:08:54.018Z,85.60
2023-05-25T02:09:26.682Z,85.64
2023-05-25T02:09:59.352Z,85.74
2023-05-25T02:10:32.017Z,85.85
2023-05-25T02:11:04.698Z,85.85
2023-05-25T02:11:37.353Z,85.95
2023-05-25T02:12:10.075Z,85.95
2023-05-25T02:12:42.717Z,85.85
2023-05-25T02:13:15.409Z,85.85
2023-05-25T02:13:48.081Z,85.74
2023-05-25T02:14:20.749Z,85.64
2023-05-25T02:14:53.430Z,85.74
2023-05-25T02:15:26.098Z,85.74
2023-05-25T02:15:58.829Z,85.74
2023-05-25T02:16:31.539Z,85.85
2023-05-25T02:17:04.246Z,85.85
2023-05-25T02:17:36.942Z,85.85
2023-05-25T02:18:09.607Z,85.85
2023-05-25T02:18:42.318Z,85.89
2023-05-25T02:19:15.022Z,86.09
2023-05-25T02:19:47.681Z,86.09
2023-05-25T02:20:20.379Z,86.09
2023-05-25T02:20:53.031Z,86.19
2023-05-25T02:21:25.690Z,86.19
2023-05-25T02:21:58.384Z,86.30
2023-05-25T02:22:31.044Z,86.30
2023-05-25T02:23:03.731Z,86.40
2023-05-25T02:23:36.465Z,86.50
2023-05-25T02:24:09.111Z,86.60
2023-05-25T02:24:41.762Z,86.60
2023-05-25T02:25:14.443Z,86.60
2023-05-25T02:25:47.155Z,86.71
2023-05-25T02:26:19.804Z,86.81
2023-05-25T02:26:52.524Z,86.95
2023-05-25T02:27:25.192Z,86.95
2023-05-25T02:27:57.865Z,86.95
2023-05-25T02:28:30.530Z,87.05
2023-05-25T02:29:03.199Z,87.05
2023-05-25T02:29:35.881Z,87.05
2023-05-25T02:30:08.529Z,87.05
2023-05-25T02:30:41.198Z,87.05
2023-05-25T02:31:13.906Z,87.16
2023-05-25T02:31:46.648Z,87.05
2023-05-25T02:32:19.317Z,87.05
2023-05-25T02:32:52.043Z,87.05
2023-05-25T02:33:24.734Z,87.05
2023-05-25T02:33:57.427Z,87.26
2023-05-25T02:34:30.082Z,87.37
2023-05-25T02:35:02.750Z,87.46
2023-05-25T02:35:35.410Z,87.67
2023-05-25T02:36:08.097Z,87.67
2023-05-25T02:36:40.770Z,87.67
2023-05-25T02:37:13.441Z,87.82
2023-05-25T02:37:46.680Z,87.92
2023-05-25T02:38:13.489Z,88.02
2023-05-25T02:38:46.156Z,88.08
2023-05-25T02:39:18.802Z,88.33
2023-05-25T02:39:51.475Z,88.23
2023-05-25T02:40:24.163Z,88.12
2023-05-25T02:40:56.828Z,88.12
2023-05-25T02:41:29.472Z,88.12
2023-05-25T02:42:00.574Z,88.23
2023-05-25T02:42:33.257Z,88.23
2023-05-25T02:43:05.933Z,88.33
2023-05-25T02:43:38.612Z,88.33
2023-05-25T02:44:11.274Z,88.33
2023-05-25T02:44:43.940Z,88.33
2023-05-25T02:45:16.618Z,88.33
2023-05-25T02:45:49.297Z,88.33
2023-05-25T02:46:21.991Z,88.33
2023-05-25T02:46:54.706Z,88.33
2023-05-25T02:47:27.424Z,88.33
2023-05-25T02:48:00.127Z,88.23
2023-05-25T02:48:32.807Z,88.23
2023-05-25T02:49:05.465Z,88.12
2023-05-25T02:49:38.137Z,88.02
2023-05-25T02:50:10.844Z,87.92
2023-05-25T02:50:43.493Z,87.82
2023-05-25T02:51:16.169Z,87.82
2023-05-25T02:51:48.861Z,87.71
2023-05-25T02:52:21.529Z,87.71
2023-05-25T02:52:54.196Z,87.71
2023-05-25T02:53:26.881Z,87.61
2023-05-25T02:53:59.560Z,87.71
2023-05-25T02:54:32.230Z,87.71
2023-05-25T02:55:04.903Z,87.82
2023-05-25T02:55:37.555Z,87.82
2023-05-25T02:56:10.252Z,87.71
2023-05-25T02:56:42.891Z,87.71
2023-05-25T02:57:15.567Z,87.71
2023-05-25T02:57:48.251Z,87.82
2023-05-25T02:58:20.920Z,87.82
2023-05-25T02:58:53.580Z,87.82
2023-05-25T02:59:26.253Z,87.82
2023-05-25T02:59:58.911Z,87.96
2023-05-25T03:00:31.582Z,87.96
2023-05-25T03:01:04.285Z,88.06
2023-05-25T03:01:36.988Z,88.06
2023-05-25T03:02:09.681Z,87.96
2023-05-25T03:02:42.376Z,87.96
2023-05-25T03:03:15.090Z,88.06
2023-05-25T03:03:47.796Z,88.06
2023-05-25T03:04:20.444Z,88.17
2023-05-25T03:04:53.129Z,88.17
2023-05-25T03:05:25.808Z,88.17
2023-05-25T03:05:58.481Z,88.17
2023-05-25T03:06:31.134Z,88.17
2023-05-25T03:07:03.828Z,88.17
2023-05-25T03:07:36.494Z,88.17
2023-05-25T03:08:09.150Z,88.17
2023-05-25T03:08:41.824Z,88.27
2023-05-25T03:09:14.518Z,88.27
2023-05-25T03:09:47.184Z,88.27
2023-05-25T03:10:19.844Z,88.27
2023-05-25T03:10:52.483Z,88.37
2023-05-25T03:11:25.159Z,88.27
2023-05-25T03:11:57.865Z,88.27
2023-05-25T03:12:30.580Z,88.27
2023-05-25T03:13:03.257Z,88.20
2023-05-25T03:13:35.925Z,88.06
2023-05-25T03:14:08.605Z,88.10
2023-05-25T03:14:41.274Z,88.10
2023-05-25T03:15:13.960Z,87.90
2023-05-25T03:15:46.649Z,88.00
2023-05-25T03:16:19.350Z,88.00
2023-05-25T03:16:53.772Z,88.00
2023-05-25T03:17:20.436Z,88.10
2023-05-25T03:17:53.128Z,88.20
2023-05-25T03:18:25.784Z,88.51
2023-05-25T03:18:58.448Z,88.62
2023-05-25T03:19:31.122Z,88.72
2023-05-25T03:20:03.886Z,88.92
2023-05-25T03:20:36.567Z,89.03
2023-05-25T03:21:09.245Z,89.13
2023-05-25T03:21:41.933Z,89.13
2023-05-25T03:22:14.641Z,89.13
2023-05-25T03:22:45.721Z,89.13
2023-05-25T03:23:18.408Z,89.23
2023-05-25T03:23:51.104Z,89.34
2023-05-25T03:24:23.828Z,89.44
2023-05-25T03:24:56.479Z,89.44
2023-05-25T03:25:29.153Z,89.44
2023-05-25T03:26:01.860Z,89.44
2023-05-25T03:26:34.563Z,89.54
2023-05-25T03:27:07.254Z,89.64
2023-05-25T03:27:39.945Z,89.64
2023-05-25T03:28:12.624Z,89.75
2023-05-25T03:28:45.294Z,89.75
2023-05-25T03:29:17.962Z,89.75
2023-05-25T03:29:50.645Z,89.75
2023-05-25T03:30:23.319Z,89.75
2023-05-25T03:30:56.033Z,89.75
2023-05-25T03:31:28.708Z,89.75
2023-05-25T03:32:01.425Z,89.85
2023-05-25T03:32:34.206Z,89.75
2023-05-25T03:33:06.937Z,89.64
2023-05-25T03:33:39.614Z,89.75
2023-05-25T03:34:12.288Z,89.75
2023-05-25T03:34:45.066Z,89.75
2023-05-25T03:35:17.770Z,89.75
2023-05-25T03:35:50.429Z,89.75
2023-05-25T03:36:23.116Z,89.85
2023-05-25T03:36:55.811Z,89.85
2023-05-25T03:37:28.524Z,89.85
2023-05-25T03:38:01.229Z,89.85
2023-05-25T03:38:33.894Z,89.95
2023-05-25T03:39:06.594Z,89.95
2023-05-25T03:39:39.435Z,90.06
2023-05-25T03:40:12.129Z,90.06
2023-05-25T03:40:44.800Z,90.16
2023-05-25T03:41:17.503Z,90.16
2023-05-25T03:41:50.204Z,90.16
2023-05-25T03:42:22.875Z,90.16
2023-05-25T03:42:55.565Z,90.16
2023-05-25T03:43:28.250Z,90.26
2023-05-25T03:44:00.950Z,90.26
2023-05-25T03:44:33.663Z,90.36
2023-05-25T03:45:06.353Z,90.47
2023-05-25T03:45:39.140Z,90.57
2023-05-25T03:46:11.990Z,90.67
2023-05-25T03:46:44.783Z,90.78
2023-05-25T03:47:15.812Z,90.78
2023-05-25T03:47:48.690Z,90.78
2023-05-25T03:48:21.434Z,90.78
2023-05-25T03:48:54.110Z,90.78
2023-05-25T03:49:26.794Z,90.78
2023-05-25T03:49:59.481Z,90.78
2023-05-25T03:50:32.168Z,90.78
2023-05-25T03:51:04.877Z,90.78
2023-05-25T03:51:37.558Z,90.88
2023-05-25T03:52:10.247Z,90.88
2023-05-25T03:52:42.944Z,90.98
2023-05-25T03:53:15.637Z,90.98
2023-05-25T03:53:48.323Z,91.08
2023-05-25T03:54:21.004Z,91.08
2023-05-25T03:54:53.718Z,91.08
2023-05-25T03:55:26.395Z,91.08
2023-05-25T03:55:59.068Z,90.98
2023-05-25T03:56:31.791Z,90.98
2023-05-25T03:57:04.529Z,91.08
2023-05-25T03:57:37.199Z,91.08
2023-05-25T03:58:09.895Z,91.08
2023-05-25T03:58:42.605Z,91.08
2023-05-25T03:59:15.265Z,91.19
2023-05-25T03:59:47.974Z,91.19
2023-05-25T04:00:20.691Z,91.19
2023-05-25T04:00:53.363Z,91.29
2023-05-25T04:01:26.051Z,91.39
2023-05-25T04:01:58.764Z,91.49
2023-05-25T04:02:31.495Z,91.49
2023-05-25T04:03:04.285Z,91.60
2023-05-25T04:03:37.196Z,91.70
2023-05-25T04:04:03.674Z,91.80
2023-05-25T04:04:36.430Z,91.91
2023-05-25T04:05:09.125Z,91.97
2023-05-25T04:05:41.944Z,92.07
2023-05-25T04:06:14.701Z,92.17
2023-05-25T04:06:47.410Z,92.17
2023-05-25T04:07:20.086Z,92.27
2023-05-25T04:07:52.757Z,92.27
2023-05-25T04:08:25.462Z,92.27
2023-05-25T04:08:58.167Z,92.27
2023-05-25T04:09:30.862Z,92.17
2023-05-25T04:10:03.643Z,92.17
2023-05-25T04:10:36.285Z,92.27
2023-05-25T04:11:09.009Z,92.23
2023-05-25T04:11:41.685Z,92.23
2023-05-25T04:12:14.369Z,92.23
2023-05-25T04:12:47.047Z,92.23
2023-05-25T04:13:19.724Z,92.33
2023-05-25T04:13:52.417Z,92.23
2023-05-25T04:14:25.097Z,92.03
2023-05-25T04:14:57.790Z,92.03
2023-05-25T04:15:30.485Z,92.03
2023-05-25T04:16:03.313Z,91.93
2023-05-25T04:16:36.054Z,91.93
2023-05-25T04:17:08.753Z,91.93
2023-05-25T04:17:41.490Z,91.93
2023-05-25T04:18:14.276Z,91.93
2023-05-25T04:18:46.958Z,91.93
2023-05-25T04:19:19.634Z,91.93
2023-05-25T04:19:52.430Z,91.82
2023-05-25T04:20:25.168Z,91.78
2023-05-25T04:20:57.853Z,91.88
2023-05-25T04:21:30.538Z,91.88
2023-05-25T04:22:03.248Z,91.99
2023-05-25T04:22:35.932Z,92.19
2023-05-25T04:23:08.612Z,91.99
2023-05-25T04:23:41.300Z,91.88
2023-05-25T04:24:13.984Z,91.78
2023-05-25T04:24:46.661Z,91.78
2023-05-25T04:25:19.371Z,91.67
2023-05-25T04:25:52.056Z,91.57
2023-05-25T04:26:24.747Z,91.57
2023-05-25T04:26:57.447Z,91.57
2023-05-25T04:27:30.141Z,91.57
2023-05-25T04:28:02.819Z,91.57
2023-05-25T04:28:35.491Z,91.53
2023-05-25T04:29:08.204Z,91.47
2023-05-25T04:29:40.869Z,91.42
2023-05-25T04:30:13.554Z,91.63
2023-05-25T04:30:46.236Z,91.74
2023-05-25T04:31:18.970Z,91.74
2023-05-25T04:31:51.732Z,91.74
2023-05-25T04:32:24.443Z,91.63
2023-05-25T04:32:57.120Z,91.53
2023-05-25T04:33:30.076Z,91.74
2023-05-25T04:33:56.372Z,91.63
2023-05-25T04:34:29.024Z,91.63
2023-05-25T04:35:01.724Z,91.63
2023-05-25T04:35:34.403Z,91.42
2023-05-25T04:36:07.076Z,91.53
2023-05-25T04:36:39.744Z,91.53
2023-05-25T04:37:12.436Z,91.63
2023-05-25T04:37:45.123Z,91.53
2023-05-25T04:38:17.834Z,91.42
2023-05-25T04:38:50.505Z,91.33
2023-05-25T04:39:23.166Z,91.22
2023-05-25T04:39:55.830Z,91.12
2023-05-25T04:40:28.527Z,91.12
2023-05-25T04:41:01.174Z,90.97
2023-05-25T04:41:33.875Z,91.38
2023-05-25T04:42:06.567Z,91.69
2023-05-25T04:42:39.226Z,91.80
2023-05-25T04:43:11.893Z,91.69
2023-05-25T04:43:56.786Z,91.69
2023-05-25T04:44:16.645Z,91.80
2023-05-25T04:44:42.820Z,91.80
2023-05-25T04:45:15.515Z,91.69
2023-05-25T04:45:48.311Z,91.59
2023-05-25T04:46:21.087Z,91.69
2023-05-25T04:46:53.767Z,91.69
2023-05-25T04:47:26.444Z,91.69
2023-05-25T04:47:59.144Z,91.49
2023-05-25T04:48:31.859Z,91.49
2023-05-25T04:49:04.493Z,91.59
2023-05-25T04:49:37.173Z,91.59
2023-05-25T04:50:03.888Z,91.38
2023-05-25T04:50:36.539Z,91.38
2023-05-25T04:51:09.216Z,91.28
2023-05-25T04:51:41.889Z,91.18
2023-05-25T04:52:14.586Z,91.08
2023-05-25T04:52:47.252Z,91.18
2023-05-25T04:53:19.959Z,91.08
2023-05-25T04:53:52.633Z,91.18
2023-05-25T04:54:25.312Z,91.55
2023-05-25T04:54:57.978Z,91.65
2023-05-25T04:55:30.650Z,91.44
2023-05-25T04:56:03.340Z,91.55
2023-05-25T04:56:35.996Z,91.65
2023-05-25T04:57:08.662Z,91.75
2023-05-25T04:57:41.326Z,91.65
2023-05-25T04:58:14.774Z,91.44
2023-05-25T04:58:41.046Z,91.24
2023-05-25T04:59:13.723Z,91.14
2023-05-25T04:59:44.810Z,91.24
2023-05-25T05:00:17.486Z,91.24
2023-05-25T05:00:52.507Z,91.14
2023-05-25T05:01:18.893Z,91.03
2023-05-25T05:01:51.659Z,91.03
2023-05-25T05:02:24.368Z,91.03
2023-05-25T05:02:57.153Z,90.99
2023-05-25T05:03:29.896Z,91.20
2023-05-25T05:04:02.589Z,91.30
2023-05-25T05:04:35.279Z,91.20
2023-05-25T05:05:07.937Z,91.20
2023-05-25T05:05:40.601Z,91.30
2023-05-25T05:06:13.263Z,91.20
2023-05-25T05:06:45.980Z,91.30
2023-05-25T05:07:18.635Z,91.40
2023-05-25T05:07:51.301Z,91.50
2023-05-25T05:08:23.978Z,91.40
2023-05-25T05:08:56.649Z,91.40
2023-05-25T05:09:29.325Z,91.30
2023-05-25T05:10:01.990Z,91.30
2023-05-25T05:10:34.681Z,91.09
2023-05-25T05:11:07.348Z,91.09
2023-05-25T05:11:39.988Z,90.89
2023-05-25T05:12:12.685Z,90.89
2023-05-25T05:12:45.358Z,91.16
2023-05-25T05:13:18.028Z,91.16
2023-05-25T05:13:50.689Z,90.95
2023-05-25T05:14:23.361Z,90.95
2023-05-25T05:14:56.026Z,90.84
2023-05-25T05:15:27.129Z,90.75
2023-05-25T05:15:59.803Z,90.84
2023-05-25T05:16:32.484Z,90.84
2023-05-25T05:17:05.226Z,90.75
2023-05-25T05:17:37.882Z,90.64
2023-05-25T05:18:10.622Z,90.95
2023-05-25T05:18:43.290Z,90.84
2023-05-25T05:19:15.988Z,90.84
2023-05-25T05:19:48.642Z,90.95
2023-05-25T05:20:21.366Z,90.75
2023-05-25T05:20:54.053Z,90.70
2023-05-25T05:21:26.752Z,90.70
2023-05-25T05:21:59.440Z,90.70
2023-05-25T05:22:32.105Z,90.60
2023-05-25T05:23:04.796Z,90.50
2023-05-25T05:23:37.445Z,90.39
2023-05-25T05:24:10.111Z,90.19
2023-05-25T05:24:42.828Z,90.09
2023-05-25T05:25:15.474Z,90.09
2023-05-25T05:25:48.148Z,89.98
2023-05-25T05:26:21.001Z,89.98
2023-05-25T05:26:57.385Z,90.30
2023-05-25T05:27:25.762Z,90.70
2023-05-25T05:27:51.941Z,91.01
2023-05-25T05:28:24.618Z,91.11
2023-05-25T05:28:57.293Z,90.97
2023-05-25T05:29:29.964Z,90.86
2023-05-25T05:30:02.641Z,90.66
2023-05-25T05:30:35.334Z,90.56
2023-05-25T05:31:08.025Z,90.66
2023-05-25T05:31:40.741Z,90.66
2023-05-25T05:32:13.424Z,90.45
2023-05-25T05:32:46.801Z,90.56
2023-05-25T05:33:13.231Z,90.77
2023-05-25T05:33:44.285Z,90.86
2023-05-25T05:34:16.942Z,90.66
2023-05-25T05:34:49.596Z,90.56
2023-05-25T05:35:22.254Z,90.36
2023-05-25T05:35:54.928Z,90.31
2023-05-25T05:36:27.601Z,90.31
2023-05-25T05:37:00.296Z,90.31
2023-05-25T05:37:32.967Z,90.11
2023-05-25T05:38:05.635Z,90.11
2023-05-25T05:38:40.046Z,90.11
2023-05-25T05:39:06.250Z,90.00
2023-05-25T05:39:38.920Z,89.90
2023-05-25T05:40:11.586Z,89.90
2023-05-25T05:40:44.276Z,89.90
2023-05-25T05:41:16.947Z,89.65
2023-05-25T05:41:49.782Z,89.80
2023-05-25T05:42:22.411Z,89.65
2023-05-25T05:42:55.086Z,89.86
2023-05-25T05:43:27.743Z,89.76
2023-05-25T05:44:00.422Z,89.65
2023-05-25T05:44:33.081Z,89.76
2023-05-25T05:45:05.755Z,89.35
2023-05-25T05:45:38.421Z,89.04
2023-05-25T05:46:11.185Z,89.15
2023-05-25T05:46:44.038Z,89.25
2023-05-25T05:47:16.724Z,89.41
2023-05-25T05:47:49.420Z,89.31
2023-05-25T05:48:22.053Z,89.00
2023-05-25T05:48:54.793Z,88.79
2023-05-25T05:49:27.452Z,88.79
2023-05-25T05:50:00.255Z,88.70
2023-05-25T05:50:32.946Z,88.70
2023-05-25T05:51:05.607Z,88.79
2023-05-25T05:51:38.284Z,88.79
2023-05-25T05:52:10.967Z,88.70
2023-05-25T05:52:43.631Z,88.49
2023-05-25T05:53:16.369Z,88.24
2023-05-25T05:53:49.018Z,88.14
2023-05-25T05:54:21.695Z,88.04
2023-05-25T05:54:54.349Z,88.04
2023-05-25T05:55:27.021Z,88.14
2023-05-25T05:55:59.677Z,87.94
2023-05-25T05:56:32.389Z,87.73
2023-05-25T05:57:05.069Z,87.73
2023-05-25T05:57:37.726Z,87.73
2023-05-25T05:58:10.394Z,87.84
2023-05-25T05:58:43.057Z,87.94
2023-05-25T05:59:15.826Z,87.90
2023-05-25T05:59:48.503Z,87.70
2023-05-25T06:00:21.164Z,87.49
2023-05-25T06:00:53.861Z,87.38
2023-05-25T06:01:26.549Z,87.49
2023-05-25T06:01:59.279Z,87.79
2023-05-25T06:02:32.007Z,87.79
2023-05-25T06:03:04.761Z,87.29
2023-05-25T06:03:37.525Z,87.14
2023-05-25T06:04:10.180Z,86.94
2023-05-25T06:04:42.833Z,86.83
2023-05-25T06:05:15.566Z,86.83
2023-05-25T06:05:48.335Z,86.83
2023-05-25T06:06:21.097Z,86.63
2023-05-25T06:06:53.774Z,86.53
2023-05-25T06:07:26.455Z,86.83
2023-05-25T06:07:59.135Z,86.49
2023-05-25T06:08:31.821Z,86.29
2023-05-25T06:09:04.534Z,86.18
2023-05-25T06:09:37.205Z,86.18
2023-05-25T06:10:09.880Z,86.08
2023-05-25T06:10:42.559Z,85.98
2023-05-25T06:11:15.227Z,85.88
2023-05-25T06:11:47.915Z,85.68
2023-05-25T06:12:20.600Z,85.22
2023-05-25T06:12:53.260Z,85.02
2023-05-25T06:13:25.921Z,85.13
2023-05-25T06:13:58.628Z,85.22
2023-05-25T06:14:31.293Z,85.22
2023-05-25T06:15:03.973Z,85.43
2023-05-25T06:15:36.640Z,85.02
2023-05-25T06:16:09.337Z,84.98
2023-05-25T06:16:42.026Z,85.08
2023-05-25T06:17:14.700Z,84.67
2023-05-25T06:17:47.365Z,84.37
2023-05-25T06:18:20.033Z,84.47
2023-05-25T06:18:52.704Z,84.37
2023-05-25T06:19:25.381Z,83.82
2023-05-25T06:19:58.091Z,83.21
2023-05-25T06:20:30.839Z,83.21
2023-05-25T06:21:03.550Z,83.21
2023-05-25T06:21:36.220Z,83.42
2023-05-25T06:22:08.922Z,83.72
2023-05-25T06:22:41.602Z,83.72
2023-05-25T06:23:14.260Z,83.17
2023-05-25T06:23:46.928Z,83.17
2023-05-25T06:24:19.615Z,82.56
2023-05-25T06:24:52.296Z,82.26
2023-05-25T06:25:24.955Z,81.95
2023-05-25T06:25:57.654Z,81.91
2023-05-25T06:26:30.342Z,81.91
2023-05-25T06:27:03.044Z,82.01
2023-05-25T06:27:35.799Z,82.12
2023-05-25T06:28:08.438Z,82.73
2023-05-25T06:28:41.101Z,83.03
2023-05-25T06:29:16.732Z,83.09
2023-05-25T06:29:43.220Z,82.38
2023-05-25T06:30:15.898Z,82.18
2023-05-25T06:30:48.550Z,82.38
2023-05-25T06:31:21.244Z,81.37
2023-05-25T06:31:53.991Z,81.43
2023-05-25T06:32:26.668Z,81.23
2023-05-25T06:32:59.382Z,81.33
2023-05-25T06:33:32.057Z,80.51
2023-05-25T06:34:04.730Z,79.66
2023-05-25T06:34:38.263Z,79.25
2023-05-25T06:35:04.520Z,78.75
2023-05-25T06:35:37.192Z,79.16
2023-05-25T06:36:09.870Z,79.77
2023-05-25T06:36:42.551Z,80.27
2023-05-25T06:37:15.229Z,79.83
2023-05-25T06:37:47.901Z,79.42
2023-05-25T06:38:20.563Z,79.02
2023-05-25T06:38:53.231Z,79.02
2023-05-25T06:39:25.903Z,79.52
2023-05-25T06:39:58.571Z,78.17
2023-05-25T06:40:31.268Z,77.56
2023-05-25T06:41:03.902Z,77.97
2023-05-25T06:41:36.572Z,78.17
2023-05-25T06:42:09.283Z,76.95
2023-05-25T06:42:41.969Z,76.64
2023-05-25T06:43:14.615Z,75.83
2023-05-25T06:43:47.301Z,75.90
2023-05-25T06:44:19.971Z,76.31
2023-05-25T06:44:52.656Z,76.71
2023-05-25T06:45:25.319Z,76.51
2023-05-25T06:45:57.998Z,76.20
2023-05-25T06:46:30.702Z,75.66
2023-05-25T06:47:03.387Z,75.05
2023-05-25T06:47:36.097Z,74.65
2023-05-25T06:48:08.863Z,74.14
2023-05-25T06:48:41.534Z,73.19
2023-05-25T06:49:14.201Z,72.58
2023-05-25T06:49:46.884Z,72.99
2023-05-25T06:50:19.564Z,73.29
2023-05-25T06:50:50.630Z,72.78
2023-05-25T06:51:23.298Z,72.28
2023-05-25T06:51:55.987Z,72.28
2023-05-25T06:52:28.650Z,72.48
2023-05-25T06:53:01.316Z,72.99
2023-05-25T06:53:33.983Z,73.25
2023-05-25T06:54:06.667Z,73.66
2023-05-25T06:54:39.326Z,74.37
2023-05-25T06:55:12.003Z,73.16
2023-05-25T06:55:43.492Z,73.43
2023-05-25T06:56:09.820Z,73.63
2023-05-25T06:56:42.477Z,73.43
2023-05-25T06:57:15.173Z,73.12
2023-05-25T06:57:47.866Z,72.78
2023-05-25T06:58:20.503Z,72.78